createdAt,value
2023-04-18T00:01:29.139Z,100174.80
2023-04-18T00:04:56.812Z,100176.17
2023-04-18T00:08:05.046Z,100177.44
2023-04-18T00:11:32.690Z,100174.96
2023-04-18T00:15:00.170Z,100175.88
2023-04-18T00:18:27.875Z,100176.88
2023-04-18T00:21:36.455Z,100179.93
2023-04-18T00:25:04.023Z,100178.58
2023-04-18T00:28:12.779Z,100174.98
2023-04-18T00:31:40.438Z,100177.46
2023-04-18T00:35:08.071Z,100176.66
2023-04-18T00:37:57.576Z,100176.13
2023-04-18T00:41:25.136Z,100176.99
2023-04-18T00:44:52.593Z,100173.62
2023-04-18T00:48:20.051Z,100172.73
2023-04-18T00:51:47.575Z,100173.39
2023-04-18T00:55:15.324Z,100171.86
2023-04-18T00:58:42.977Z,100171.98
2023-04-18T01:01:51.517Z,100175.55
2023-04-18T01:05:19.093Z,100177.73
2023-04-18T01:08:46.653Z,100181.16
2023-04-18T01:12:14.185Z,100173.87
2023-04-18T01:15:03.904Z,100171.98
2023-04-18T01:18:12.620Z,100175.28
2023-04-18T01:21:40.259Z,100169.61
2023-04-18T01:25:03.824Z,100168.12
2023-04-18T01:28:31.469Z,100171.55
2023-04-18T01:31:58.975Z,100166.02
2023-04-18T01:35:26.930Z,100167.14
2023-04-18T01:38:54.453Z,100167.64
2023-04-18T01:42:21.927Z,100167.75
2023-04-18T01:45:49.691Z,100164.45
2023-04-18T01:48:58.395Z,100167.63
2023-04-18T01:52:25.859Z,100164.43
2023-04-18T01:55:53.602Z,100163.85
2023-04-18T01:59:21.066Z,100166.13
2023-04-18T02:02:48.850Z,100169.30
2023-04-18T02:06:16.213Z,100169.17
2023-04-18T02:09:43.794Z,100168.80
2023-04-18T02:12:52.766Z,100171.30
2023-04-18T02:16:20.575Z,100172.02
2023-04-18T02:19:47.985Z,100168.80
2023-04-18T02:23:15.530Z,100167.98
2023-04-18T02:26:38.052Z,100169.13
2023-04-18T02:30:05.653Z,100172.27
2023-04-18T02:33:14.153Z,100173.59
2023-04-18T02:36:41.800Z,100174.38
2023-04-18T02:40:09.457Z,100176.16
2023-04-18T02:43:37.128Z,100173.87
2023-04-18T02:47:04.548Z,100176.77
2023-04-18T02:50:32.126Z,100176.52
2023-04-18T02:53:40.702Z,100176.66
2023-04-18T02:57:08.441Z,100175.96
2023-04-18T03:00:34.761Z,100172.27
2023-04-18T03:03:43.028Z,100172.88
2023-04-18T03:07:10.622Z,100173.11
2023-04-18T03:10:38.336Z,100178.66
2023-04-18T03:13:46.900Z,100184.11
2023-04-18T03:17:14.345Z,100181.32
2023-04-18T03:20:23.908Z,100184.51
2023-04-18T03:23:40.452Z,100189.16
2023-04-18T03:26:50.147Z,100190.16
2023-04-18T03:30:17.947Z,100188.82
2023-04-18T03:33:45.580Z,100187.64
2023-04-18T03:36:57.317Z,100189.23
2023-04-18T03:40:24.970Z,100191.60
2023-04-18T03:43:52.596Z,100198.86
2023-04-18T03:47:20.053Z,100201.73
2023-04-18T03:50:47.905Z,100206.66
2023-04-18T03:54:15.950Z,100211.71
2023-04-18T03:57:43.389Z,100215.05
2023-04-18T04:01:11.134Z,100213.71
2023-04-18T04:04:20.004Z,100216.41
2023-04-18T04:07:47.476Z,100219.22
2023-04-18T04:10:52.779Z,100229.07
2023-04-18T04:14:01.513Z,100231.34
2023-04-18T04:17:29.037Z,100231.50
2023-04-18T04:20:56.458Z,100236.30
2023-04-18T04:24:24.088Z,100242.35
2023-04-18T04:27:51.833Z,100242.29
2023-04-18T04:31:00.512Z,100242.19
2023-04-18T04:34:28.162Z,100248.77
2023-04-18T04:37:55.641Z,100250.40
2023-04-18T04:41:23.309Z,100256.67
2023-04-18T04:44:32.910Z,100254.95
2023-04-18T04:47:42.459Z,100256.41
2023-04-18T04:50:50.608Z,100263.02
2023-04-18T04:54:00.122Z,100265.24
2023-04-18T04:56:49.893Z,100266.52
2023-04-18T05:00:17.575Z,100271.12
2023-04-18T05:03:45.323Z,100274.81
2023-04-18T05:07:12.595Z,100277.98
2023-04-18T05:10:28.193Z,100277.38
2023-04-18T05:13:55.892Z,100283.00
2023-04-18T05:17:04.574Z,100282.64
2023-04-18T05:20:13.057Z,100281.52
2023-04-18T05:23:20.812Z,100275.68
2023-04-18T05:26:28.473Z,100272.89
2023-04-18T05:29:56.050Z,100280.55
2023-04-18T05:33:23.758Z,100280.73
2023-04-18T05:36:51.493Z,100284.55
2023-04-18T05:40:19.165Z,100289.33
2023-04-18T05:43:57.827Z,100290.69
2023-04-18T05:47:14.538Z,100289.28
2023-04-18T05:50:42.299Z,100288.46
2023-04-18T05:54:09.831Z,100289.77
2023-04-18T05:57:37.549Z,100290.52
2023-04-18T06:01:05.043Z,100296.10
2023-04-18T06:04:32.913Z,100297.98
2023-04-18T06:08:00.340Z,100297.22
2023-04-18T06:11:09.041Z,100300.99
2023-04-18T06:14:36.587Z,100299.52
2023-04-18T06:17:45.152Z,100298.67
2023-04-18T06:21:12.907Z,100296.11
2023-04-18T06:24:21.299Z,100296.27
2023-04-18T06:27:20.404Z,100300.74
2023-04-18T06:30:35.782Z,100301.34
2023-04-18T06:34:03.311Z,100304.34
2023-04-18T06:36:50.874Z,100304.98
2023-04-18T06:40:14.685Z,100304.29
2023-04-18T06:42:43.405Z,100304.73
2023-04-18T06:45:11.477Z,100308.04
2023-04-18T06:48:19.230Z,100308.47
2023-04-18T06:50:47.421Z,100311.13
2023-04-18T06:53:15.189Z,100312.41
2023-04-18T06:56:03.969Z,100310.63
2023-04-18T06:59:31.535Z,100313.73
2023-04-18T07:01:59.272Z,100314.66
2023-04-18T07:04:27.095Z,100316.25
2023-04-18T07:06:57.825Z,100316.75
2023-04-18T07:09:30.715Z,100320.23
2023-04-18T07:12:58.492Z,100322.06
2023-04-18T07:16:02.874Z,100325.02
2023-04-18T07:19:18.442Z,100327.76
2023-04-18T07:22:41.968Z,100326.44
2023-04-18T07:25:57.536Z,100324.82
2023-04-18T07:28:45.203Z,100329.10
2023-04-18T07:31:53.673Z,100330.19
2023-04-18T07:35:09.300Z,100331.70
2023-04-18T07:38:32.949Z,100325.42
2023-04-18T07:41:42.284Z,100323.44
2023-04-18T07:44:28.110Z,100331.81
2023-04-18T07:47:37.863Z,100329.67
2023-04-18T07:51:05.465Z,100334.36
2023-04-18T07:53:50.058Z,100333.20
2023-04-18T07:56:54.613Z,100333.01
2023-04-18T08:00:22.349Z,100336.98
2023-04-18T08:03:50.308Z,100341.21
2023-04-18T08:06:59.746Z,100345.10
2023-04-18T08:10:09.550Z,100346.88
2023-04-18T08:13:37.161Z,100351.88
2023-04-18T08:16:45.708Z,100354.47
2023-04-18T08:19:57.409Z,100358.02
2023-04-18T08:23:12.218Z,100358.80
2023-04-18T08:26:17.992Z,100360.68
2023-04-18T08:29:45.441Z,100361.46
2023-04-18T08:33:13.062Z,100361.33
2023-04-18T08:36:38.188Z,100368.21
2023-04-18T08:40:05.764Z,100362.59
2023-04-18T08:43:15.351Z,100362.31
2023-04-18T08:46:03.543Z,100368.20
2023-04-18T08:49:07.501Z,100363.98
2023-04-18T08:52:35.110Z,100365.45
2023-04-18T08:55:23.421Z,100369.48
2023-04-18T08:58:19.531Z,100365.72
2023-04-18T09:01:08.167Z,100365.73
2023-04-18T09:04:35.886Z,100366.56
2023-04-18T09:08:03.199Z,100362.63
2023-04-18T09:10:53.297Z,100362.59
2023-04-18T09:14:01.878Z,100359.11
2023-04-18T09:17:10.660Z,100358.19
2023-04-18T09:20:38.786Z,100352.51
2023-04-18T09:23:08.387Z,100358.67
2023-04-18T09:25:55.131Z,100361.58
2023-04-18T09:28:24.411Z,100358.93
2023-04-18T09:30:53.675Z,100359.47
2023-04-18T09:33:21.624Z,100359.40
2023-04-18T09:35:49.249Z,100361.02
2023-04-18T09:38:16.932Z,100359.34
2023-04-18T09:40:46.644Z,100357.60
2023-04-18T09:43:15.127Z,100353.96
2023-04-18T09:46:00.252Z,100359.98
2023-04-18T09:48:29.356Z,100360.30
2023-04-18T09:50:57.644Z,100358.46
2023-04-18T09:53:34.611Z,100354.84
2023-04-18T09:56:02.611Z,100351.60
2023-04-18T09:58:30.744Z,100355.05
2023-04-18T10:01:22.755Z,100355.11
2023-04-18T10:03:58.747Z,100351.94
2023-04-18T10:06:51.331Z,100350.50
2023-04-18T10:09:55.113Z,100349.20
2023-04-18T10:12:23.705Z,100348.85
2023-04-18T10:14:52.723Z,100343.61
2023-04-18T10:17:56.102Z,100345.34
2023-04-18T10:20:52.545Z,100345.55
2023-04-18T10:24:20.471Z,100350.80
2023-04-18T10:27:25.002Z,100337.73
2023-04-18T10:30:33.907Z,100339.86
2023-04-18T10:34:05.716Z,100342.48
2023-04-18T10:37:17.354Z,100344.13
2023-04-18T10:40:08.090Z,100340.47
2023-04-18T10:42:36.560Z,100343.89
2023-04-18T10:45:05.242Z,100341.80
2023-04-18T10:47:33.877Z,100341.80
2023-04-18T10:50:24.212Z,100335.48
2023-04-18T10:53:02.798Z,100335.52
2023-04-18T10:55:30.575Z,100333.20
2023-04-18T10:57:58.729Z,100325.65
2023-04-18T11:00:30.861Z,100326.73
2023-04-18T11:02:59.435Z,100325.64
2023-04-18T11:05:31.746Z,100319.88
2023-04-18T11:08:01.442Z,100323.42
2023-04-18T11:10:29.247Z,100325.05
2023-04-18T11:13:05.156Z,100323.62
2023-04-18T11:15:39.615Z,100329.17
2023-04-18T11:18:07.682Z,100329.99
2023-04-18T11:20:38.629Z,100329.27
2023-04-18T11:23:07.095Z,100324.48
2023-04-18T11:25:51.839Z,100323.80
2023-04-18T11:28:20.804Z,100320.77
2023-04-18T11:30:48.703Z,100319.73
2023-04-18T11:33:17.114Z,100320.81
2023-04-18T11:36:40.959Z,100318.20
2023-04-18T11:39:32.560Z,100314.97
2023-04-18T11:42:24.239Z,100311.53
2023-04-18T11:45:14.995Z,100311.91
2023-04-18T11:48:10.801Z,100310.84
2023-04-18T11:50:39.925Z,100303.70
2023-04-18T11:53:48.899Z,100308.83
2023-04-18T11:57:00.755Z,100313.39
2023-04-18T11:59:49.546Z,100308.00
2023-04-18T12:02:26.945Z,100310.53
2023-04-18T12:05:32.135Z,100303.76
2023-04-18T12:08:59.996Z,100302.48
2023-04-18T12:11:49.063Z,100298.00
2023-04-18T12:14:22.069Z,100299.14
2023-04-18T12:17:15.594Z,100303.66
2023-04-18T12:19:54.566Z,100300.76
2023-04-18T12:22:45.679Z,100300.92
2023-04-18T12:26:15.285Z,100297.68
2023-04-18T12:29:43.224Z,100296.40
2023-04-18T12:32:48.820Z,100291.55
2023-04-18T12:36:18.614Z,100290.65
2023-04-18T12:39:46.601Z,100293.48
2023-04-18T12:42:38.870Z,100296.24
2023-04-18T12:45:48.078Z,100299.34
2023-04-18T12:48:36.898Z,100295.13
2023-04-18T12:52:05.713Z,100290.22
2023-04-18T12:55:35.504Z,100288.63
2023-04-18T12:59:07.850Z,100287.61
2023-04-18T13:02:35.822Z,100287.70
2023-04-18T13:05:58.853Z,100287.40
2023-04-18T13:09:26.790Z,100289.02
2023-04-18T13:12:42.560Z,100287.39
2023-04-18T13:15:50.329Z,100279.77
2023-04-18T13:18:39.996Z,100279.27
2023-04-18T13:22:08.532Z,100276.70
2023-04-18T13:24:58.419Z,100275.98
2023-04-18T13:28:03.806Z,100277.13
2023-04-18T13:30:53.266Z,100274.48
2023-04-18T13:33:22.098Z,100275.59
2023-04-18T13:35:50.542Z,100269.66
2023-04-18T13:39:18.435Z,100276.27
2023-04-18T13:42:47.093Z,100272.28
2023-04-18T13:45:55.342Z,100270.45
2023-04-18T13:49:23.541Z,100269.77
2023-04-18T13:52:32.831Z,100270.72
2023-04-18T13:55:05.836Z,100267.98
2023-04-18T13:57:56.578Z,100264.84
2023-04-18T14:01:03.710Z,100263.98
2023-04-18T14:03:52.661Z,100263.34
2023-04-18T14:06:21.901Z,100265.92
2023-04-18T14:09:10.031Z,100263.77
2023-04-18T14:11:38.404Z,100262.69
2023-04-18T14:14:28.299Z,100258.63
2023-04-18T14:17:36.815Z,100260.47
2023-04-18T14:20:05.727Z,100255.61
2023-04-18T14:23:13.900Z,100252.27
2023-04-18T14:26:22.495Z,100253.78
2023-04-18T14:29:11.109Z,100245.02
2023-04-18T14:31:45.101Z,100252.55
2023-04-18T14:34:14.798Z,100252.50
2023-04-18T14:37:23.198Z,100252.00
2023-04-18T14:39:52.106Z,100252.98
2023-04-18T14:43:20.233Z,100256.80
2023-04-18T14:46:17.557Z,100255.23
2023-04-18T14:48:46.146Z,100252.90
2023-04-18T14:52:14.106Z,100253.92
2023-04-18T14:55:40.801Z,100257.66
2023-04-18T14:58:52.774Z,100254.99
2023-04-18T15:02:02.841Z,100251.29
2023-04-18T15:05:12.137Z,100255.66
2023-04-18T15:08:05.912Z,100256.85
2023-04-18T15:11:14.680Z,100255.66
2023-04-18T15:14:07.051Z,100255.88
2023-04-18T15:17:15.288Z,100250.34
2023-04-18T15:20:24.004Z,100246.63
2023-04-18T15:23:46.603Z,100243.21
2023-04-18T15:26:55.094Z,100247.30
2023-04-18T15:30:22.877Z,100246.27
2023-04-18T15:33:25.858Z,100248.09
2023-04-18T15:36:53.897Z,100257.02
2023-04-18T15:39:29.239Z,100255.99
2023-04-18T15:42:21.850Z,100261.46
2023-04-18T15:45:49.768Z,100262.16
2023-04-18T15:49:17.571Z,100262.33
2023-04-18T15:52:03.180Z,100262.48
2023-04-18T15:55:11.494Z,100262.42
2023-04-18T15:58:27.387Z,100262.61
2023-04-18T16:01:55.221Z,100264.58
2023-04-18T16:04:59.360Z,100266.43
2023-04-18T16:07:55.677Z,100267.91
2023-04-18T16:11:07.381Z,100272.48
2023-04-18T16:14:10.956Z,100274.23
2023-04-18T16:17:19.917Z,100272.43
2023-04-18T16:20:39.247Z,100276.64
2023-04-18T16:23:46.910Z,100279.72
2023-04-18T16:27:02.863Z,100283.93
2023-04-18T16:29:35.579Z,100283.58
2023-04-18T16:32:24.270Z,100287.77
2023-04-18T16:35:12.174Z,100288.75
2023-04-18T16:38:00.689Z,100293.05
2023-04-18T16:40:50.294Z,100290.66
2023-04-18T16:43:58.447Z,100294.16
2023-04-18T16:46:52.832Z,100292.01
2023-04-18T16:50:20.636Z,100291.92
2023-04-18T16:53:44.781Z,100292.38
2023-04-18T16:57:12.576Z,100294.33
2023-04-18T16:59:46.314Z,100290.99
2023-04-18T17:03:14.457Z,100294.73
2023-04-18T17:06:42.956Z,100294.66
2023-04-18T17:09:52.788Z,100296.80
2023-04-18T17:13:20.432Z,100295.02
2023-04-18T17:16:30.070Z,100289.45
2023-04-18T17:19:38.335Z,100287.88
2023-04-18T17:23:06.175Z,100285.14
2023-04-18T17:26:17.777Z,100283.29
2023-04-18T17:29:45.744Z,100284.60
2023-04-18T17:33:13.613Z,100285.92
2023-04-18T17:36:41.755Z,100291.75
2023-04-18T17:40:09.449Z,100293.85
2023-04-18T17:43:17.335Z,100300.61
2023-04-18T17:46:45.519Z,100306.30
2023-04-18T17:50:13.348Z,100314.95
2023-04-18T17:53:41.886Z,100320.09
2023-04-18T17:56:31.754Z,100321.60
2023-04-18T17:59:59.882Z,100325.96
2023-04-18T18:03:28.104Z,100331.95
2023-04-18T18:06:55.803Z,100339.95
2023-04-18T18:10:23.769Z,100347.53
2023-04-18T18:13:51.535Z,100356.74
2023-04-18T18:17:19.763Z,100356.40
2023-04-18T18:20:27.641Z,100354.23
2023-04-18T18:23:55.693Z,100347.42
2023-04-18T18:27:23.418Z,100348.19
2023-04-18T18:30:54.715Z,100349.19
2023-04-18T18:34:03.578Z,100342.91
2023-04-18T18:37:34.350Z,100340.02
2023-04-18T18:41:03.814Z,100340.77
2023-04-18T18:44:30.168Z,100339.59
2023-04-18T18:47:58.599Z,100336.88
2023-04-18T18:51:26.535Z,100330.86
2023-04-18T18:54:54.312Z,100323.33
2023-04-18T18:58:22.187Z,100312.88
2023-04-18T19:01:50.192Z,100314.12
2023-04-18T19:05:19.061Z,100317.44
2023-04-18T19:08:45.960Z,100324.36
2023-04-18T19:12:13.531Z,100317.99
2023-04-18T19:15:40.979Z,100317.27
2023-04-18T19:19:08.672Z,100312.02
2023-04-18T19:22:02.010Z,100307.35
2023-04-18T19:25:29.777Z,100310.42
2023-04-18T19:28:57.750Z,100311.51
2023-04-18T19:32:25.488Z,100309.08
2023-04-18T19:35:53.119Z,100305.37
2023-04-18T19:39:00.923Z,100309.50
2023-04-18T19:42:28.715Z,100310.36
2023-04-18T19:45:36.977Z,100307.71
2023-04-18T19:49:05.052Z,100304.50
2023-04-18T19:52:14.057Z,100305.73
2023-04-18T19:55:41.992Z,100304.67
2023-04-18T19:59:10.169Z,100309.48
2023-04-18T20:02:37.842Z,100312.41
2023-04-18T20:05:54.804Z,100313.17
2023-04-18T20:09:04.292Z,100310.08
2023-04-18T20:12:32.096Z,100310.40
2023-04-18T20:15:59.742Z,100312.02
2023-04-18T20:19:27.734Z,100312.62
2023-04-18T20:22:55.413Z,100316.08
2023-04-18T20:26:23.103Z,100314.43
2023-04-18T20:29:50.948Z,100316.20
2023-04-18T20:33:18.605Z,100318.92
2023-04-18T20:36:07.261Z,100316.20
2023-04-18T20:39:35.120Z,100318.61
2023-04-18T20:43:03.160Z,100319.29
2023-04-18T20:46:30.992Z,100314.11
2023-04-18T20:50:00.127Z,100310.54
2023-04-18T20:53:28.085Z,100313.55
2023-04-18T20:56:56.207Z,100316.95
2023-04-18T21:00:24.128Z,100316.09
2023-04-18T21:03:53.368Z,100317.39
2023-04-18T21:06:41.988Z,100314.23
2023-04-18T21:10:09.854Z,100313.17
2023-04-18T21:13:25.980Z,100309.75
2023-04-18T21:16:53.905Z,100306.53
2023-04-18T21:20:21.807Z,100305.26
2023-04-18T21:23:30.861Z,100299.17
2023-04-18T21:27:00.027Z,100302.60
2023-04-18T21:30:28.303Z,100300.48
2023-04-18T21:33:36.267Z,100296.61
2023-04-18T21:37:04.510Z,100293.50
2023-04-18T21:40:13.374Z,100290.96
2023-04-18T21:43:41.927Z,100287.31
2023-04-18T21:47:09.915Z,100291.63
2023-04-18T21:50:18.363Z,100293.09
2023-04-18T21:53:46.386Z,100288.60
2023-04-18T21:57:14.195Z,100286.89
2023-04-18T22:00:42.612Z,100291.44
2023-04-18T22:03:51.970Z,100294.35
2023-04-18T22:07:20.135Z,100295.35
2023-04-18T22:10:47.833Z,100288.63
2023-04-18T22:14:16.420Z,100289.83
2023-04-18T22:17:05.740Z,100287.96
2023-04-18T22:20:33.598Z,100282.31
2023-04-18T22:23:42.503Z,100276.17
2023-04-18T22:26:52.709Z,100272.98
2023-04-18T22:30:21.124Z,100274.30
2023-04-18T22:33:30.010Z,100274.93
2023-04-18T22:36:19.649Z,100272.56
2023-04-18T22:39:08.243Z,100272.63
2023-04-18T22:41:56.698Z,100267.95
2023-04-18T22:45:25.126Z,100264.90
2023-04-18T22:48:33.873Z,100259.24
2023-04-18T22:52:02.939Z,100253.59
2023-04-18T22:55:31.026Z,100247.92
2023-04-18T22:58:59.220Z,100245.66
2023-04-18T23:02:27.271Z,100244.93
2023-04-18T23:05:55.148Z,100240.42
2023-04-18T23:08:44.328Z,100239.05
2023-04-18T23:11:34.133Z,100235.73
2023-04-18T23:14:43.114Z,100233.73
2023-04-18T23:18:11.049Z,100232.48
2023-04-18T23:21:21.264Z,100228.06
2023-04-18T23:24:49.175Z,100227.08
2023-04-18T23:28:17.351Z,100225.70
2023-04-18T23:31:45.585Z,100228.05
2023-04-18T23:35:13.533Z,100227.75
2023-04-18T23:38:41.561Z,100221.54
2023-04-18T23:42:09.454Z,100222.29
2023-04-18T23:45:37.407Z,100217.11
2023-04-18T23:49:05.249Z,100217.66
2023-04-18T23:52:33.358Z,100215.11
2023-04-18T23:56:01.240Z,100208.48
2023-04-18T23:59:29.104Z,100202.08
